createdAt,value
2023-01-19T00:00:52.514Z,29.10
2023-01-19T00:03:16.222Z,28.50
2023-01-19T00:05:28.907Z,28.00
2023-01-19T00:07:41.920Z,28.00
2023-01-19T00:09:54.537Z,27.30
2023-01-19T00:12:07.286Z,27.20
2023-01-19T00:14:19.838Z,26.80
2023-01-19T00:16:32.436Z,25.40
2023-01-19T00:18:46.020Z,26.50
2023-01-19T00:20:58.536Z,27.10
2023-01-19T00:23:11.051Z,25.60
2023-01-19T00:25:23.610Z,26.00
2023-01-19T00:27:36.134Z,26.30
2023-01-19T00:29:48.729Z,25.10
2023-01-19T00:32:02.771Z,24.30
2023-01-19T00:34:15.499Z,22.10
2023-01-19T00:36:28.296Z,21.80
2023-01-19T00:38:40.914Z,20.80
2023-01-19T00:40:53.487Z,21.00
2023-01-19T00:43:06.022Z,20.70
2023-01-19T00:45:21.705Z,18.70
2023-01-19T00:47:34.239Z,16.90
2023-01-19T00:49:46.749Z,17.50
2023-01-19T00:51:59.441Z,14.10
2023-01-19T00:54:11.958Z,15.60
2023-01-19T00:56:24.941Z,14.30
2023-01-19T00:58:37.515Z,17.40
2023-01-19T01:00:50.085Z,14.20
2023-01-19T01:03:03.161Z,11.80
2023-01-19T01:05:16.390Z,11.80
2023-01-19T01:07:30.133Z,11.30
2023-01-19T01:09:42.654Z,11.00
2023-01-19T01:11:55.251Z,11.50
2023-01-19T01:14:08.509Z,11.50
2023-01-19T01:16:22.871Z,10.40
2023-01-19T01:18:35.552Z,9.10
2023-01-19T01:20:48.788Z,8.60
2023-01-19T01:23:01.784Z,8.50
2023-01-19T01:25:16.089Z,7.90
2023-01-19T01:27:28.619Z,7.00
2023-01-19T01:29:46.420Z,7.20
2023-01-19T01:31:58.993Z,7.40
2023-01-19T01:34:11.548Z,7.00
2023-01-19T01:36:24.138Z,6.90
2023-01-19T01:38:36.630Z,6.50
2023-01-19T01:40:49.551Z,6.20
2023-01-19T01:43:02.816Z,6.40
2023-01-19T01:45:33.539Z,5.80
2023-01-19T01:47:49.885Z,6.20
2023-01-19T01:50:08.296Z,6.50
2023-01-19T01:52:22.900Z,5.50
2023-01-19T01:54:35.647Z,5.20
2023-01-19T01:56:52.179Z,5.00
2023-01-19T01:59:08.728Z,5.20
2023-01-19T02:01:40.538Z,5.40
2023-01-19T02:03:56.142Z,5.20
2023-01-19T02:06:10.094Z,5.10
2023-01-19T02:08:49.853Z,4.60
2023-01-19T02:11:21.403Z,4.70
2023-01-19T02:13:39.850Z,5.50
2023-01-19T02:15:58.463Z,5.60
2023-01-19T02:18:11.275Z,5.50
2023-01-19T02:20:27.991Z,5.60
2023-01-19T02:22:48.882Z,4.60
2023-01-19T02:25:04.815Z,4.30
2023-01-19T02:27:18.039Z,4.00
2023-01-19T02:29:31.235Z,4.40
2023-01-19T02:31:45.523Z,4.20
2023-01-19T02:33:59.814Z,4.10
2023-01-19T02:36:15.148Z,3.80
2023-01-19T02:38:28.685Z,3.50
2023-01-19T02:40:43.590Z,3.40
2023-01-19T02:43:00.850Z,3.60
2023-01-19T02:45:15.404Z,3.90
2023-01-19T02:47:38.884Z,3.80
2023-01-19T02:49:57.081Z,3.60
2023-01-19T02:52:17.552Z,3.80
2023-01-19T02:54:48.110Z,4.00
2023-01-19T02:57:19.130Z,3.90
2023-01-19T02:59:43.883Z,4.20
2023-01-19T03:02:19.374Z,4.30
2023-01-19T03:04:49.349Z,4.50
2023-01-19T03:07:14.224Z,4.40
2023-01-19T03:09:43.784Z,4.50
2023-01-19T03:12:05.844Z,4.70
2023-01-19T03:14:23.542Z,4.70
2023-01-19T03:16:48.510Z,4.60
2023-01-19T03:19:17.486Z,4.80
2023-01-19T03:21:34.006Z,4.90
2023-01-19T03:23:49.560Z,4.90
2023-01-19T03:26:05.215Z,4.80
2023-01-19T03:28:22.765Z,5.20
2023-01-19T03:30:42.036Z,5.10
2023-01-19T03:33:00.448Z,5.10
2023-01-19T03:35:16.619Z,5.30
2023-01-19T03:37:33.545Z,5.40
2023-01-19T03:39:46.175Z,5.70
2023-01-19T03:42:03.057Z,6.10
2023-01-19T03:44:16.830Z,6.10
2023-01-19T03:46:31.619Z,6.40
2023-01-19T03:48:46.029Z,6.50
2023-01-19T03:51:02.423Z,6.70
2023-01-19T03:53:17.053Z,6.80
2023-01-19T03:55:29.852Z,7.20
2023-01-19T03:57:42.423Z,7.40
2023-01-19T03:59:55.817Z,7.70
2023-01-19T04:02:08.449Z,8.50
2023-01-19T04:04:21.151Z,8.90
2023-01-19T04:06:33.739Z,8.80
2023-01-19T04:08:49.085Z,9.40
2023-01-19T04:11:01.771Z,8.60
2023-01-19T04:13:14.334Z,9.00
2023-01-19T04:15:27.878Z,9.20
2023-01-19T04:17:41.811Z,8.90
2023-01-19T04:19:54.362Z,9.50
2023-01-19T04:22:06.909Z,9.80
2023-01-19T04:24:19.540Z,9.50
2023-01-19T04:26:33.115Z,9.60
2023-01-19T04:28:46.001Z,10.10
2023-01-19T04:30:58.634Z,10.20
2023-01-19T04:33:11.166Z,10.20
2023-01-19T04:35:23.779Z,10.30
2023-01-19T04:37:36.264Z,11.20
2023-01-19T04:39:48.792Z,10.80
2023-01-19T04:42:01.616Z,10.60
2023-01-19T04:44:14.565Z,10.50
2023-01-19T04:46:27.114Z,10.40
2023-01-19T04:48:41.311Z,10.40
2023-01-19T04:50:54.732Z,10.10
2023-01-19T04:53:07.754Z,10.50
2023-01-19T04:55:20.274Z,10.20
2023-01-19T04:57:32.852Z,10.00
2023-01-19T04:59:45.394Z,10.20
2023-01-19T05:01:57.966Z,9.70
2023-01-19T05:04:10.542Z,9.70
2023-01-19T05:06:23.110Z,9.10
2023-01-19T05:08:35.751Z,9.40
2023-01-19T05:10:48.411Z,8.70
2023-01-19T05:13:01.315Z,9.20
2023-01-19T05:15:14.046Z,8.30
2023-01-19T05:17:26.561Z,7.70
2023-01-19T05:19:39.189Z,8.00
2023-01-19T05:21:51.841Z,7.90
2023-01-19T05:24:04.475Z,7.10
2023-01-19T05:26:17.055Z,6.80
2023-01-19T05:28:31.257Z,6.10
2023-01-19T05:30:43.892Z,6.10
2023-01-19T05:32:56.440Z,5.90
2023-01-19T05:35:09.553Z,6.00
2023-01-19T05:37:22.099Z,5.90
2023-01-19T05:39:34.681Z,6.00
2023-01-19T05:41:47.715Z,5.70
2023-01-19T05:44:00.501Z,5.50
2023-01-19T05:46:13.394Z,5.30
2023-01-19T05:48:26.021Z,4.90
2023-01-19T05:50:38.548Z,4.80
2023-01-19T05:52:53.277Z,4.60
2023-01-19T05:55:06.326Z,4.70
2023-01-19T05:57:18.989Z,5.30
2023-01-19T05:59:31.590Z,5.60
2023-01-19T06:01:44.195Z,4.50
2023-01-19T06:03:56.763Z,5.70
2023-01-19T06:06:09.387Z,6.20
2023-01-19T06:08:21.894Z,4.50
2023-01-19T06:10:34.706Z,5.00
2023-01-19T06:12:47.303Z,4.20
2023-01-19T06:14:59.928Z,4.40
2023-01-19T06:17:12.653Z,4.10
2023-01-19T06:19:25.310Z,4.20
2023-01-19T06:21:38.236Z,4.20
2023-01-19T06:23:50.848Z,4.60
2023-01-19T06:26:03.726Z,4.20
2023-01-19T06:28:16.295Z,4.10
2023-01-19T06:30:29.067Z,4.10
2023-01-19T06:32:41.656Z,5.00
2023-01-19T06:34:54.290Z,4.90
2023-01-19T06:37:06.936Z,4.50
2023-01-19T06:39:19.504Z,4.70
2023-01-19T06:41:33.401Z,4.60
2023-01-19T06:43:45.963Z,4.20
2023-01-19T06:46:00.352Z,3.70
2023-01-19T06:48:13.203Z,3.90
2023-01-19T06:50:26.030Z,4.00
2023-01-19T06:52:42.334Z,4.50
2023-01-19T06:54:55.505Z,4.40
2023-01-19T06:57:11.763Z,4.10
2023-01-19T06:59:25.529Z,4.20
2023-01-19T07:01:38.306Z,4.80
2023-01-19T07:03:50.964Z,6.80
2023-01-19T07:06:06.438Z,4.70
2023-01-19T07:08:19.006Z,5.10
2023-01-19T07:11:26.575Z,6.40
2023-01-19T07:13:04.686Z,5.00
2023-01-19T07:15:22.572Z,4.70
2023-01-19T07:17:35.100Z,4.80
2023-01-19T07:19:47.802Z,5.30
2023-01-19T07:22:00.601Z,5.00
2023-01-19T07:24:13.113Z,5.30
2023-01-19T07:26:27.992Z,5.90
2023-01-19T07:28:41.641Z,7.40
2023-01-19T07:30:55.442Z,8.60
2023-01-19T07:33:08.437Z,9.20
2023-01-19T07:35:21.941Z,7.50
2023-01-19T07:37:34.500Z,6.90
2023-01-19T07:39:47.088Z,7.70
2023-01-19T07:41:59.729Z,8.00
2023-01-19T07:44:12.229Z,6.50
2023-01-19T07:46:24.823Z,6.90
2023-01-19T07:48:37.493Z,7.60
2023-01-19T07:50:50.013Z,6.60
2023-01-19T07:53:07.270Z,6.60
2023-01-19T07:55:20.754Z,5.80
2023-01-19T07:57:33.294Z,5.30
2023-01-19T07:59:45.874Z,5.20
2023-01-19T08:01:59.551Z,5.80
2023-01-19T08:04:12.355Z,6.20
2023-01-19T08:06:32.646Z,6.70
2023-01-19T08:08:45.188Z,8.70
2023-01-19T08:10:57.806Z,7.50
2023-01-19T08:13:10.335Z,10.20
2023-01-19T08:15:24.610Z,8.20
2023-01-19T08:17:37.192Z,9.50
2023-01-19T08:19:49.737Z,6.60
2023-01-19T08:22:02.349Z,7.10
2023-01-19T08:24:21.360Z,7.40
2023-01-19T08:26:35.736Z,6.60
2023-01-19T08:28:48.341Z,6.80
2023-01-19T08:31:11.153Z,7.20
2023-01-19T08:33:31.033Z,7.10
2023-01-19T08:35:49.005Z,7.60
2023-01-19T08:38:01.675Z,7.40
2023-01-19T08:40:14.483Z,7.20
2023-01-19T08:42:27.274Z,7.60
2023-01-19T08:44:49.741Z,8.00
2023-01-19T08:47:09.563Z,7.80
2023-01-19T08:49:22.220Z,8.80
2023-01-19T08:51:34.905Z,8.10
2023-01-19T08:53:47.928Z,8.20
2023-01-19T08:56:03.163Z,9.00
2023-01-19T08:58:17.389Z,8.10
2023-01-19T09:00:34.350Z,8.00
2023-01-19T09:02:47.327Z,7.70
2023-01-19T09:05:00.152Z,7.80
2023-01-19T09:07:12.812Z,8.00
2023-01-19T09:09:25.339Z,7.80
2023-01-19T09:11:38.019Z,7.90
2023-01-19T09:13:50.785Z,7.10
2023-01-19T09:16:04.237Z,7.60
2023-01-19T09:18:19.283Z,8.20
2023-01-19T09:20:33.762Z,8.50
2023-01-19T09:22:47.544Z,7.30
2023-01-19T09:25:00.347Z,7.60
2023-01-19T09:27:13.323Z,7.50
2023-01-19T09:29:25.947Z,6.90
2023-01-19T09:31:40.193Z,7.20
2023-01-19T09:33:52.809Z,7.50
2023-01-19T09:36:05.777Z,6.00
2023-01-19T09:38:19.963Z,6.90
2023-01-19T09:40:32.727Z,7.50
2023-01-19T09:42:52.595Z,6.80
2023-01-19T09:45:12.182Z,6.90
2023-01-19T09:47:28.310Z,8.10
2023-01-19T09:49:55.091Z,7.00
2023-01-19T09:52:11.217Z,7.50
2023-01-19T09:54:52.942Z,6.90
2023-01-19T09:57:11.035Z,6.60
2023-01-19T09:59:29.879Z,7.80
2023-01-19T10:02:00.206Z,6.40
2023-01-19T10:04:18.605Z,6.70
2023-01-19T10:06:31.648Z,7.00
2023-01-19T10:09:00.881Z,6.90
2023-01-19T10:11:34.516Z,6.40
2023-01-19T10:13:55.864Z,7.10
2023-01-19T10:16:34.861Z,6.60
2023-01-19T10:18:51.625Z,7.40
2023-01-19T10:21:13.090Z,6.70
2023-01-19T10:23:44.052Z,6.60
2023-01-19T10:26:00.413Z,7.40
2023-01-19T10:28:14.974Z,8.30
2023-01-19T10:30:30.125Z,7.50
2023-01-19T10:32:44.457Z,6.60
2023-01-19T10:34:59.501Z,7.10
2023-01-19T10:37:37.900Z,13.40
2023-01-19T10:39:57.126Z,22.30
2023-01-19T10:42:15.148Z,34.50
2023-01-19T10:44:33.964Z,42.10
2023-01-19T10:46:49.015Z,19.80
2023-01-19T10:49:02.211Z,13.90
2023-01-19T10:51:15.152Z,10.40
2023-01-19T10:53:30.582Z,6.60
2023-01-19T10:55:44.070Z,6.50
2023-01-19T10:57:57.832Z,6.60
2023-01-19T11:00:39.345Z,6.80
2023-01-19T11:02:52.064Z,10.90
2023-01-19T11:05:24.124Z,9.70
2023-01-19T11:07:36.782Z,9.70
2023-01-19T11:09:50.539Z,11.00
2023-01-19T11:12:03.298Z,9.20
2023-01-19T11:14:20.930Z,7.90
2023-01-19T11:16:35.187Z,6.40
2023-01-19T11:18:52.441Z,6.10
2023-01-19T11:21:12.200Z,6.00
2023-01-19T11:23:28.445Z,5.80
2023-01-19T11:25:46.332Z,5.50
2023-01-19T11:27:59.638Z,5.70
2023-01-19T11:30:22.248Z,5.60
2023-01-19T11:32:36.999Z,5.40
2023-01-19T11:34:50.467Z,5.40
2023-01-19T11:37:18.409Z,5.50
2023-01-19T11:39:46.612Z,5.90
2023-01-19T11:42:02.565Z,6.10
2023-01-19T11:44:23.769Z,6.20
2023-01-19T11:46:39.649Z,5.40
2023-01-19T11:49:19.890Z,5.10
2023-01-19T11:51:43.521Z,5.10
2023-01-19T11:53:56.220Z,5.30
2023-01-19T11:56:14.948Z,5.70
2023-01-19T11:58:27.781Z,5.40
2023-01-19T12:00:46.268Z,5.10
2023-01-19T12:03:16.006Z,5.60
2023-01-19T12:05:33.228Z,6.50
2023-01-19T12:07:48.997Z,6.20
2023-01-19T12:10:20.760Z,5.80
2023-01-19T12:12:36.594Z,5.80
2023-01-19T12:14:59.490Z,6.00
2023-01-19T12:17:20.036Z,5.30
2023-01-19T12:19:46.183Z,5.80
2023-01-19T12:21:59.578Z,5.30
2023-01-19T12:24:40.470Z,5.90
2023-01-19T12:26:56.208Z,5.40
2023-01-19T12:29:14.057Z,6.20
2023-01-19T12:31:27.722Z,5.10
2023-01-19T12:33:40.606Z,5.60
2023-01-19T12:35:55.545Z,5.90
2023-01-19T12:38:43.555Z,5.10
2023-01-19T12:41:34.506Z,5.10
2023-01-19T12:43:48.519Z,5.40
2023-01-19T12:46:02.055Z,4.90
2023-01-19T12:48:25.275Z,5.20
2023-01-19T12:50:38.562Z,4.90
2023-01-19T12:53:02.072Z,4.70
2023-01-19T12:55:14.651Z,4.60
2023-01-19T12:57:30.376Z,4.50
2023-01-19T12:59:43.302Z,10.30
2023-01-19T13:02:20.887Z,4.90
2023-01-19T13:04:33.988Z,4.70
2023-01-19T13:06:49.568Z,4.50
2023-01-19T13:09:02.431Z,4.10
2023-01-19T13:11:18.030Z,5.40
2023-01-19T13:13:50.142Z,5.60
2023-01-19T13:16:18.065Z,7.00
2023-01-19T13:18:35.355Z,4.70
2023-01-19T13:20:56.191Z,5.70
2023-01-19T13:23:27.585Z,5.60
2023-01-19T13:25:41.308Z,5.30
2023-01-19T13:27:54.596Z,5.50
2023-01-19T13:30:12.656Z,4.20
2023-01-19T13:32:25.681Z,3.60
2023-01-19T13:34:49.015Z,5.60
2023-01-19T13:37:02.034Z,4.90
2023-01-19T13:39:19.987Z,5.50
2023-01-19T13:41:40.211Z,4.70
2023-01-19T13:44:01.369Z,4.80
2023-01-19T13:46:17.346Z,5.20
2023-01-19T13:48:31.501Z,5.60
2023-01-19T13:50:56.901Z,6.40
2023-01-19T13:53:20.684Z,6.00
2023-01-19T13:55:33.506Z,7.60
2023-01-19T13:57:48.168Z,5.30
2023-01-19T14:00:17.193Z,5.40
2023-01-19T14:02:29.968Z,5.10
2023-01-19T14:04:42.794Z,5.40
2023-01-19T14:06:58.697Z,5.60
2023-01-19T14:09:17.893Z,6.70
2023-01-19T14:11:30.482Z,5.60
2023-01-19T14:13:44.863Z,5.70
2023-01-19T14:16:00.927Z,9.40
2023-01-19T14:18:16.606Z,6.20
2023-01-19T14:20:30.565Z,5.90
2023-01-19T14:22:45.862Z,5.90
2023-01-19T14:25:26.119Z,5.60
2023-01-19T14:27:39.155Z,6.10
2023-01-19T14:29:54.736Z,6.10
2023-01-19T14:32:17.282Z,5.80
2023-01-19T14:34:48.202Z,6.30
2023-01-19T14:37:03.057Z,5.90
2023-01-19T14:39:23.313Z,4.90
2023-01-19T14:41:44.439Z,5.00
2023-01-19T14:43:58.947Z,4.40
2023-01-19T14:46:19.188Z,4.70
2023-01-19T14:48:32.133Z,4.60
2023-01-19T14:51:01.335Z,5.80
2023-01-19T14:53:18.742Z,6.60
2023-01-19T14:55:56.693Z,6.50
2023-01-19T14:58:14.161Z,5.00
2023-01-19T15:00:27.140Z,4.60
2023-01-19T15:02:39.792Z,4.10
2023-01-19T15:04:55.293Z,4.10
2023-01-19T15:07:17.056Z,4.10
2023-01-19T15:09:29.777Z,3.90
2023-01-19T15:11:43.476Z,4.20
2023-01-19T15:13:56.120Z,4.60
2023-01-19T15:16:11.659Z,5.90
2023-01-19T15:18:26.875Z,6.40
2023-01-19T15:20:40.597Z,5.60
2023-01-19T15:22:53.185Z,5.70
2023-01-19T15:25:06.624Z,6.20
2023-01-19T15:27:21.681Z,6.60
2023-01-19T15:29:34.477Z,8.60
2023-01-19T15:31:47.567Z,8.20
2023-01-19T15:34:00.303Z,8.40
2023-01-19T15:36:17.728Z,9.40
2023-01-19T15:38:30.643Z,8.90
2023-01-19T15:40:43.537Z,10.50
2023-01-19T15:42:56.098Z,13.50
2023-01-19T15:45:29.768Z,16.30
2023-01-19T15:47:42.369Z,17.90
2023-01-19T15:49:54.901Z,16.10
2023-01-19T15:52:07.451Z,14.00
2023-01-19T15:54:20.076Z,20.10
2023-01-19T15:56:32.625Z,22.10
2023-01-19T15:58:46.033Z,26.20
2023-01-19T16:00:58.925Z,33.60
2023-01-19T16:03:11.540Z,36.30
2023-01-19T16:05:37.465Z,38.60
2023-01-19T16:07:54.888Z,38.60
2023-01-19T16:10:09.528Z,41.50
2023-01-19T16:12:22.178Z,39.90
2023-01-19T16:14:34.695Z,34.60
2023-01-19T16:16:47.284Z,31.20
2023-01-19T16:19:00.096Z,37.10
2023-01-19T16:21:12.810Z,35.20
2023-01-19T16:23:25.515Z,27.20
2023-01-19T16:25:38.130Z,24.60
2023-01-19T16:27:50.741Z,24.60
2023-01-19T16:30:05.291Z,21.20
2023-01-19T16:32:18.202Z,29.00
2023-01-19T16:34:31.137Z,38.00
2023-01-19T16:37:19.703Z,34.70
2023-01-19T16:39:32.378Z,27.60
2023-01-19T16:41:46.012Z,27.90
2023-01-19T16:43:58.905Z,28.30
2023-01-19T16:47:19.564Z,35.40
2023-01-19T16:49:32.490Z,47.90
2023-01-19T16:51:45.921Z,43.00
2023-01-19T16:53:58.885Z,44.60
2023-01-19T16:56:14.466Z,37.60
2023-01-19T16:58:27.125Z,44.90
2023-01-19T17:00:39.683Z,50.30
2023-01-19T17:02:52.175Z,43.40
2023-01-19T17:05:05.187Z,31.80
2023-01-19T17:07:19.225Z,28.60
2023-01-19T17:09:32.037Z,28.40
2023-01-19T17:11:45.120Z,29.90
2023-01-19T17:14:03.259Z,29.50
2023-01-19T17:16:16.571Z,28.10
2023-01-19T17:18:34.416Z,28.20
2023-01-19T17:20:46.927Z,29.10
2023-01-19T17:22:59.732Z,27.60
2023-01-19T17:25:12.250Z,27.70
2023-01-19T17:27:24.897Z,26.70
2023-01-19T17:29:37.594Z,27.10
2023-01-19T17:31:51.044Z,31.50
2023-01-19T17:34:04.049Z,34.00
2023-01-19T17:36:22.991Z,35.10
2023-01-19T17:38:36.180Z,37.80
2023-01-19T17:40:48.703Z,38.90
2023-01-19T17:43:01.213Z,41.40
2023-01-19T17:45:15.006Z,44.40
2023-01-19T17:47:27.553Z,45.90
2023-01-19T17:49:40.242Z,53.60
2023-01-19T17:51:54.522Z,58.00
2023-01-19T17:54:07.430Z,64.60
2023-01-19T17:56:22.711Z,68.80
2023-01-19T17:58:35.452Z,58.30
2023-01-19T18:00:48.108Z,50.60
2023-01-19T18:03:00.965Z,50.40
2023-01-19T18:05:14.918Z,55.20
2023-01-19T18:07:28.577Z,54.90
2023-01-19T18:09:41.124Z,47.50
2023-01-19T18:11:53.840Z,45.80
2023-01-19T18:14:06.718Z,58.00
2023-01-19T18:16:23.139Z,54.00
2023-01-19T18:18:36.637Z,49.90
2023-01-19T18:20:49.388Z,47.30
2023-01-19T18:23:02.197Z,46.20
2023-01-19T18:25:14.848Z,43.70
2023-01-19T18:27:29.110Z,44.90
2023-01-19T18:29:42.854Z,54.40
2023-01-19T18:31:55.480Z,94.50
2023-01-19T18:34:08.233Z,81.60
2023-01-19T18:36:20.791Z,86.50
2023-01-19T18:38:34.321Z,94.00
2023-01-19T18:40:47.163Z,102.50
2023-01-19T18:42:59.701Z,102.30
2023-01-19T18:45:12.274Z,103.70
2023-01-19T18:47:24.838Z,103.20
2023-01-19T18:49:37.589Z,111.10
2023-01-19T18:51:50.300Z,108.50
2023-01-19T18:54:02.968Z,108.40
2023-01-19T18:56:16.384Z,109.30
2023-01-19T18:58:31.688Z,99.70
2023-01-19T19:00:44.535Z,86.60
2023-01-19T19:02:58.085Z,74.60
2023-01-19T19:05:11.153Z,85.90
2023-01-19T19:07:23.860Z,89.20
2023-01-19T19:09:36.898Z,72.50
2023-01-19T19:11:49.396Z,76.80
2023-01-19T19:14:03.510Z,77.80
2023-01-19T19:16:16.271Z,81.30
2023-01-19T19:18:29.198Z,59.20
2023-01-19T19:20:44.386Z,57.40
2023-01-19T19:22:56.919Z,76.90
2023-01-19T19:25:09.680Z,72.90
2023-01-19T19:27:22.385Z,71.50
2023-01-19T19:29:35.133Z,69.80
2023-01-19T19:31:47.835Z,85.70
2023-01-19T19:34:00.468Z,100.50
2023-01-19T19:36:13.230Z,88.40
2023-01-19T19:38:27.199Z,87.60
2023-01-19T19:40:39.938Z,99.50
2023-01-19T19:42:52.948Z,95.50
2023-01-19T19:45:05.913Z,88.70
2023-01-19T19:47:19.185Z,116.60
2023-01-19T19:49:31.797Z,89.10
2023-01-19T19:51:44.461Z,83.70
2023-01-19T19:53:59.365Z,79.30
2023-01-19T19:56:13.236Z,79.40
2023-01-19T19:58:26.976Z,70.80
2023-01-19T20:00:39.842Z,70.80
2023-01-19T20:02:52.606Z,69.80
2023-01-19T20:05:05.893Z,72.70
2023-01-19T20:07:18.712Z,70.40
2023-01-19T20:09:32.658Z,68.60
2023-01-19T20:11:46.808Z,68.60
2023-01-19T20:13:59.407Z,67.00
2023-01-19T20:16:14.691Z,65.30
2023-01-19T20:18:27.407Z,64.70
2023-01-19T20:20:40.235Z,67.40
2023-01-19T20:22:52.873Z,63.90
2023-01-19T20:25:06.264Z,66.00
2023-01-19T20:27:18.889Z,64.50
2023-01-19T20:29:31.683Z,67.80
2023-01-19T20:31:47.204Z,68.80
2023-01-19T20:34:02.774Z,71.20
2023-01-19T20:36:16.164Z,66.70
2023-01-19T20:38:29.038Z,65.40
2023-01-19T20:40:41.817Z,66.30
2023-01-19T20:42:54.631Z,97.50
2023-01-19T20:45:08.574Z,108.40
2023-01-19T20:47:22.529Z,74.30
2023-01-19T20:49:36.042Z,72.20
2023-01-19T20:51:49.921Z,77.70
2023-01-19T20:54:02.471Z,84.30
2023-01-19T20:56:15.531Z,84.10
2023-01-19T20:58:31.161Z,89.00
2023-01-19T21:00:44.605Z,91.10
2023-01-19T21:02:57.526Z,91.10
2023-01-19T21:05:10.590Z,115.10
2023-01-19T21:07:23.283Z,112.00
2023-01-19T21:09:38.067Z,109.60
2023-01-19T21:11:50.633Z,119.80
2023-01-19T21:14:03.862Z,104.90
2023-01-19T21:16:16.431Z,80.40
2023-01-19T21:18:29.381Z,86.70
2023-01-19T21:20:42.247Z,87.90
2023-01-19T21:22:55.131Z,96.10
2023-01-19T21:25:08.184Z,95.20
2023-01-19T21:27:21.045Z,88.40
2023-01-19T21:29:33.919Z,91.30
2023-01-19T21:31:46.585Z,102.70
2023-01-19T21:33:59.362Z,103.90
2023-01-19T21:36:12.271Z,92.60
2023-01-19T21:38:27.302Z,96.60
2023-01-19T21:40:40.122Z,94.90
2023-01-19T21:42:52.799Z,108.00
2023-01-19T21:45:06.409Z,98.50
2023-01-19T21:47:19.103Z,96.80
2023-01-19T21:49:31.812Z,94.20
2023-01-19T21:51:45.586Z,94.90
2023-01-19T21:54:00.381Z,94.70
2023-01-19T21:56:12.949Z,94.10
2023-01-19T21:58:26.077Z,103.60
2023-01-19T22:00:39.110Z,85.20
2023-01-19T22:03:03.183Z,83.00
2023-01-19T22:05:16.309Z,78.50
2023-01-19T22:07:28.858Z,80.70
2023-01-19T22:09:41.423Z,82.70
2023-01-19T22:11:54.039Z,88.80
2023-01-19T22:14:06.760Z,98.70
2023-01-19T22:16:21.367Z,106.50
2023-01-19T22:18:36.031Z,106.80
2023-01-19T22:20:48.678Z,103.20
2023-01-19T22:23:01.196Z,87.20
2023-01-19T22:25:14.958Z,87.30
2023-01-19T22:27:28.540Z,90.10
2023-01-19T22:29:41.081Z,99.20
2023-01-19T22:31:53.721Z,94.00
2023-01-19T22:34:10.392Z,84.70
2023-01-19T22:36:35.673Z,82.60
2023-01-19T22:38:51.569Z,84.50
2023-01-19T22:41:17.736Z,84.50
2023-01-19T22:43:30.332Z,83.10
2023-01-19T22:45:43.253Z,76.30
2023-01-19T22:47:55.757Z,71.50
2023-01-19T22:50:08.957Z,67.10
2023-01-19T22:52:21.509Z,65.80
2023-01-19T22:54:34.110Z,64.70
2023-01-19T22:56:46.666Z,68.00
2023-01-19T22:58:59.823Z,66.50
2023-01-19T23:01:18.057Z,66.30
2023-01-19T23:03:30.689Z,66.00
2023-01-19T23:05:43.316Z,62.50
2023-01-19T23:07:55.843Z,65.60
2023-01-19T23:10:09.005Z,64.80
2023-01-19T23:12:21.570Z,63.00
2023-01-19T23:14:34.647Z,59.50
2023-01-19T23:16:47.508Z,54.40
2023-01-19T23:19:00.662Z,53.90
2023-01-19T23:21:16.850Z,56.70
2023-01-19T23:23:29.430Z,57.40
2023-01-19T23:25:41.976Z,57.00
2023-01-19T23:27:54.474Z,57.00
2023-01-19T23:30:07.924Z,57.00
2023-01-19T23:32:20.556Z,56.60
2023-01-19T23:34:33.107Z,56.50
2023-01-19T23:36:45.769Z,57.80
2023-01-19T23:39:00.955Z,56.20
2023-01-19T23:41:13.590Z,58.00
2023-01-19T23:43:26.801Z,54.80
2023-01-19T23:45:39.317Z,55.00
2023-01-19T23:47:51.844Z,55.50
2023-01-19T23:50:05.160Z,61.60
2023-01-19T23:52:17.694Z,66.50
2023-01-19T23:54:30.417Z,72.60
2023-01-19T23:56:43.038Z,77.60
2023-01-19T23:59:07.686Z,74.50
